sensor_id;sensor_type;location;lat;lon;timestamp;P1;durP1;ratioP1;P2;durP2;ratioP2
12660;SDS011;39039;51.802;5.710;2022-09-04T00:02:29;6.63;;;4.50;;
12660;SDS011;39039;51.802;5.710;2022-09-04T00:04:59;8.00;;;4.60;;
12660;SDS011;39039;51.802;5.710;2022-09-04T00:07:30;7.17;;;4.70;;
12660;SDS011;39039;51.802;5.710;2022-09-04T00:10:02;7.97;;;4.93;;
12660;SDS011;39039;51.802;5.710;2022-09-04T00:12:37;8.67;;;4.47;;
12660;SDS011;39039;51.802;5.710;2022-09-04T00:15:10;7.63;;;4.40;;
12660;SDS011;39039;51.802;5.710;2022-09-04T00:17:40;6.53;;;4.70;;
12660;SDS011;39039;51.802;5.710;2022-09-04T00:20:11;6.97;;;4.63;;
12660;SDS011;39039;51.802;5.710;2022-09-04T00:22:41;6.37;;;4.33;;
12660;SDS011;39039;51.802;5.710;2022-09-04T00:25:16;6.10;;;4.40;;
12660;SDS011;39039;51.802;5.710;2022-09-04T00:27:49;8.50;;;3.90;;
12660;SDS011;39039;51.802;5.710;2022-09-04T00:30:20;5.90;;;4.90;;
12660;SDS011;39039;51.802;5.710;2022-09-04T00:32:50;7.70;;;5.27;;
12660;SDS011;39039;51.802;5.710;2022-09-04T00:35:19;7.13;;;4.63;;
12660;SDS011;39039;51.802;5.710;2022-09-04T00:37:50;8.33;;;5.73;;
12660;SDS011;39039;51.802;5.710;2022-09-04T00:40:22;14.07;;;5.37;;
12660;SDS011;39039;51.802;5.710;2022-09-04T00:42:57;7.97;;;5.33;;
12660;SDS011;39039;51.802;5.710;2022-09-04T00:45:45;8.33;;;5.77;;
12660;SDS011;39039;51.802;5.710;2022-09-04T00:48:28;7.70;;;5.50;;
12660;SDS011;39039;51.802;5.710;2022-09-04T00:51:03;9.03;;;6.27;;
12660;SDS011;39039;51.802;5.710;2022-09-04T00:53:49;8.37;;;5.63;;
12660;SDS011;39039;51.802;5.710;2022-09-04T00:56:37;7.50;;;5.37;;
12660;SDS011;39039;51.802;5.710;2022-09-04T00:59:17;9.13;;;5.67;;
12660;SDS011;39039;51.802;5.710;2022-09-04T01:01:55;10.37;;;6.07;;
12660;SDS011;39039;51.802;5.710;2022-09-04T01:04:30;7.80;;;5.57;;
12660;SDS011;39039;51.802;5.710;2022-09-04T01:07:02;9.27;;;5.63;;
12660;SDS011;39039;51.802;5.710;2022-09-04T01:09:40;8.13;;;5.77;;
12660;SDS011;39039;51.802;5.710;2022-09-04T01:12:18;9.97;;;6.23;;
12660;SDS011;39039;51.802;5.710;2022-09-04T01:14:49;8.27;;;6.07;;
12660;SDS011;39039;51.802;5.710;2022-09-04T01:17:23;12.07;;;6.07;;
12660;SDS011;39039;51.802;5.710;2022-09-04T01:19:53;11.03;;;6.23;;
12660;SDS011;39039;51.802;5.710;2022-09-04T01:22:31;7.33;;;5.63;;
12660;SDS011;39039;51.802;5.710;2022-09-04T01:25:02;9.07;;;6.73;;
12660;SDS011;39039;51.802;5.710;2022-09-04T01:27:33;8.43;;;5.93;;
12660;SDS011;39039;51.802;5.710;2022-09-04T01:30:04;9.50;;;6.17;;
12660;SDS011;39039;51.802;5.710;2022-09-04T01:32:34;7.87;;;5.73;;
12660;SDS011;39039;51.802;5.710;2022-09-04T01:35:07;8.70;;;6.03;;
12660;SDS011;39039;51.802;5.710;2022-09-04T01:37:42;9.37;;;6.07;;
12660;SDS011;39039;51.802;5.710;2022-09-04T01:40:22;8.90;;;6.00;;
12660;SDS011;39039;51.802;5.710;2022-09-04T01:42:53;9.37;;;6.53;;
12660;SDS011;39039;51.802;5.710;2022-09-04T01:45:27;9.13;;;6.77;;
12660;SDS011;39039;51.802;5.710;2022-09-04T01:47:55;9.80;;;6.70;;
12660;SDS011;39039;51.802;5.710;2022-09-04T01:50:25;9.50;;;6.70;;
12660;SDS011;39039;51.802;5.710;2022-09-04T01:52:56;10.30;;;5.93;;
12660;SDS011;39039;51.802;5.710;2022-09-04T01:55:25;10.77;;;7.03;;
12660;SDS011;39039;51.802;5.710;2022-09-04T01:58:04;11.63;;;7.17;;
12660;SDS011;39039;51.802;5.710;2022-09-04T02:00:34;9.63;;;6.73;;
12660;SDS011;39039;51.802;5.710;2022-09-04T02:03:06;8.70;;;6.03;;
12660;SDS011;39039;51.802;5.710;2022-09-04T02:05:37;10.73;;;6.93;;
12660;SDS011;39039;51.802;5.710;2022-09-04T02:08:12;13.03;;;8.23;;
12660;SDS011;39039;51.802;5.710;2022-09-04T02:10:42;10.60;;;7.57;;
12660;SDS011;39039;51.802;5.710;2022-09-04T02:13:15;13.43;;;8.10;;
12660;SDS011;39039;51.802;5.710;2022-09-04T02:15:47;10.30;;;7.50;;
12660;SDS011;39039;51.802;5.710;2022-09-04T02:18:20;11.73;;;7.57;;
12660;SDS011;39039;51.802;5.710;2022-09-04T02:20:50;10.33;;;7.33;;
12660;SDS011;39039;51.802;5.710;2022-09-04T02:23:20;13.47;;;8.87;;
12660;SDS011;39039;51.802;5.710;2022-09-04T02:25:55;13.00;;;7.80;;
12660;SDS011;39039;51.802;5.710;2022-09-04T02:28:28;14.60;;;9.47;;
12660;SDS011;39039;51.802;5.710;2022-09-04T02:31:04;12.03;;;7.60;;
12660;SDS011;39039;51.802;5.710;2022-09-04T02:33:37;14.50;;;8.57;;
12660;SDS011;39039;51.802;5.710;2022-09-04T02:36:06;14.63;;;9.20;;
12660;SDS011;39039;51.802;5.710;2022-09-04T02:38:36;11.43;;;8.17;;
12660;SDS011;39039;51.802;5.710;2022-09-04T02:41:07;11.47;;;8.03;;
12660;SDS011;39039;51.802;5.710;2022-09-04T02:43:42;12.83;;;8.33;;
12660;SDS011;39039;51.802;5.710;2022-09-04T02:46:11;12.53;;;8.10;;
12660;SDS011;39039;51.802;5.710;2022-09-04T02:48:43;14.00;;;8.20;;
12660;SDS011;39039;51.802;5.710;2022-09-04T02:51:17;12.30;;;8.93;;
12660;SDS011;39039;51.802;5.710;2022-09-04T02:53:51;12.87;;;7.83;;
12660;SDS011;39039;51.802;5.710;2022-09-04T02:56:24;13.93;;;8.80;;
12660;SDS011;39039;51.802;5.710;2022-09-04T02:58:58;16.93;;;9.60;;
12660;SDS011;39039;51.802;5.710;2022-09-04T03:01:27;15.60;;;10.03;;
12660;SDS011;39039;51.802;5.710;2022-09-04T03:03:59;14.63;;;9.07;;
12660;SDS011;39039;51.802;5.710;2022-09-04T03:06:40;16.23;;;9.77;;
12660;SDS011;39039;51.802;5.710;2022-09-04T03:09:09;13.83;;;9.37;;
12660;SDS011;39039;51.802;5.710;2022-09-04T03:11:39;14.30;;;10.10;;
12660;SDS011;39039;51.802;5.710;2022-09-04T03:14:10;17.00;;;10.37;;
12660;SDS011;39039;51.802;5.710;2022-09-04T03:16:41;16.80;;;10.93;;
12660;SDS011;39039;51.802;5.710;2022-09-04T03:19:11;16.47;;;10.77;;
12660;SDS011;39039;51.802;5.710;2022-09-04T03:21:40;18.83;;;10.80;;
12660;SDS011;39039;51.802;5.710;2022-09-04T03:24:12;16.43;;;11.07;;
12660;SDS011;39039;51.802;5.710;2022-09-04T03:26:40;14.80;;;10.17;;
12660;SDS011;39039;51.802;5.710;2022-09-04T03:29:11;16.87;;;10.07;;
12660;SDS011;39039;51.802;5.710;2022-09-04T03:31:47;18.03;;;10.60;;
12660;SDS011;39039;51.802;5.710;2022-09-04T03:34:19;14.47;;;9.77;;
12660;SDS011;39039;51.802;5.710;2022-09-04T03:36:55;16.63;;;11.53;;
12660;SDS011;39039;51.802;5.710;2022-09-04T03:39:25;16.83;;;10.27;;
12660;SDS011;39039;51.802;5.710;2022-09-04T03:42:01;18.00;;;11.17;;
12660;SDS011;39039;51.802;5.710;2022-09-04T03:44:37;19.60;;;11.57;;
12660;SDS011;39039;51.802;5.710;2022-09-04T03:47:08;18.80;;;10.77;;
12660;SDS011;39039;51.802;5.710;2022-09-04T03:49:42;16.97;;;10.37;;
12660;SDS011;39039;51.802;5.710;2022-09-04T03:52:13;17.33;;;11.77;;
12660;SDS011;39039;51.802;5.710;2022-09-04T03:55:00;18.73;;;11.60;;
12660;SDS011;39039;51.802;5.710;2022-09-04T03:57:30;17.53;;;10.67;;
12660;SDS011;39039;51.802;5.710;2022-09-04T04:00:08;19.77;;;11.47;;
12660;SDS011;39039;51.802;5.710;2022-09-04T04:02:44;19.20;;;11.40;;
12660;SDS011;39039;51.802;5.710;2022-09-04T04:05:24;20.63;;;11.10;;
12660;SDS011;39039;51.802;5.710;2022-09-04T04:07:57;16.83;;;10.40;;
12660;SDS011;39039;51.802;5.710;2022-09-04T04:10:28;19.00;;;10.70;;
12660;SDS011;39039;51.802;5.710;2022-09-04T04:13:15;15.67;;;10.40;;
12660;SDS011;39039;51.802;5.710;2022-09-04T04:15:51;19.30;;;11.77;;
12660;SDS011;39039;51.802;5.710;2022-09-04T04:18:28;17.87;;;11.10;;
12660;SDS011;39039;51.802;5.710;2022-09-04T04:21:00;17.57;;;10.93;;
12660;SDS011;39039;51.802;5.710;2022-09-04T04:23:45;19.17;;;11.53;;
12660;SDS011;39039;51.802;5.710;2022-09-04T04:26:46;16.80;;;10.83;;
12660;SDS011;39039;51.802;5.710;2022-09-04T04:29:31;17.97;;;11.27;;
12660;SDS011;39039;51.802;5.710;2022-09-04T04:32:09;17.23;;;10.93;;
12660;SDS011;39039;51.802;5.710;2022-09-04T04:34:45;19.27;;;10.93;;
12660;SDS011;39039;51.802;5.710;2022-09-04T04:37:16;17.40;;;11.23;;
12660;SDS011;39039;51.802;5.710;2022-09-04T04:39:46;16.40;;;11.17;;
12660;SDS011;39039;51.802;5.710;2022-09-04T04:42:18;20.10;;;11.63;;
12660;SDS011;39039;51.802;5.710;2022-09-04T04:45:02;18.87;;;12.17;;
12660;SDS011;39039;51.802;5.710;2022-09-04T04:50:37;17.43;;;11.13;;
12660;SDS011;39039;51.802;5.710;2022-09-04T04:53:08;21.00;;;12.03;;
12660;SDS011;39039;51.802;5.710;2022-09-04T04:55:40;17.87;;;11.13;;
12660;SDS011;39039;51.802;5.710;2022-09-04T04:58:17;16.37;;;10.50;;
12660;SDS011;39039;51.802;5.710;2022-09-04T05:00:47;18.47;;;11.97;;
12660;SDS011;39039;51.802;5.710;2022-09-04T05:03:18;19.43;;;12.10;;
12660;SDS011;39039;51.802;5.710;2022-09-04T05:05:56;18.27;;;10.90;;
12660;SDS011;39039;51.802;5.710;2022-09-04T05:08:32;19.97;;;10.67;;
12660;SDS011;39039;51.802;5.710;2022-09-04T05:11:03;15.53;;;10.10;;
12660;SDS011;39039;51.802;5.710;2022-09-04T05:13:35;19.07;;;11.00;;
12660;SDS011;39039;51.802;5.710;2022-09-04T05:16:04;19.23;;;11.13;;
12660;SDS011;39039;51.802;5.710;2022-09-04T05:18:35;15.73;;;10.10;;
12660;SDS011;39039;51.802;5.710;2022-09-04T05:21:06;16.50;;;10.97;;
12660;SDS011;39039;51.802;5.710;2022-09-04T05:23:36;15.93;;;11.23;;
12660;SDS011;39039;51.802;5.710;2022-09-04T05:26:09;16.53;;;10.30;;
12660;SDS011;39039;51.802;5.710;2022-09-04T05:28:41;18.13;;;11.27;;
12660;SDS011;39039;51.802;5.710;2022-09-04T05:31:13;18.30;;;10.73;;
12660;SDS011;39039;51.802;5.710;2022-09-04T05:33:44;16.17;;;10.60;;
12660;SDS011;39039;51.802;5.710;2022-09-04T05:36:23;17.00;;;11.33;;
12660;SDS011;39039;51.802;5.710;2022-09-04T05:38:55;21.70;;;10.73;;
12660;SDS011;39039;51.802;5.710;2022-09-04T05:41:34;16.80;;;11.27;;
12660;SDS011;39039;51.802;5.710;2022-09-04T05:44:09;18.23;;;10.83;;
12660;SDS011;39039;51.802;5.710;2022-09-04T05:46:44;18.30;;;11.50;;
12660;SDS011;39039;51.802;5.710;2022-09-04T05:49:22;19.10;;;11.30;;
12660;SDS011;39039;51.802;5.710;2022-09-04T05:51:59;18.27;;;10.33;;
12660;SDS011;39039;51.802;5.710;2022-09-04T05:54:50;16.77;;;10.93;;
12660;SDS011;39039;51.802;5.710;2022-09-04T05:57:21;16.33;;;10.97;;
12660;SDS011;39039;51.802;5.710;2022-09-04T06:02:59;14.00;;;10.27;;
12660;SDS011;39039;51.802;5.710;2022-09-04T06:05:56;13.67;;;10.03;;
12660;SDS011;39039;51.802;5.710;2022-09-04T06:08:41;15.43;;;10.27;;
12660;SDS011;39039;51.802;5.710;2022-09-04T06:11:33;19.13;;;10.77;;
12660;SDS011;39039;51.802;5.710;2022-09-04T06:14:13;17.43;;;11.17;;
12660;SDS011;39039;51.802;5.710;2022-09-04T06:16:59;16.60;;;9.70;;
12660;SDS011;39039;51.802;5.710;2022-09-04T06:19:47;17.23;;;10.10;;
12660;SDS011;39039;51.802;5.710;2022-09-04T06:25:27;14.60;;;10.03;;
12660;SDS011;39039;51.802;5.710;2022-09-04T06:28:09;14.50;;;8.75;;
12660;SDS011;39039;51.802;5.710;2022-09-04T06:30:52;15.00;;;9.77;;
12660;SDS011;39039;51.802;5.710;2022-09-04T06:33:25;15.02;;;9.68;;
12660;SDS011;39039;51.802;5.710;2022-09-04T06:36:04;17.20;;;9.55;;
12660;SDS011;39039;51.802;5.710;2022-09-04T06:38:56;14.50;;;9.10;;
12660;SDS011;39039;51.802;5.710;2022-09-04T06:41:40;13.95;;;8.70;;
12660;SDS011;39039;51.802;5.710;2022-09-04T06:44:24;14.38;;;9.25;;
12660;SDS011;39039;51.802;5.710;2022-09-04T06:47:04;14.57;;;9.65;;
12660;SDS011;39039;51.802;5.710;2022-09-04T06:49:50;14.52;;;9.57;;
12660;SDS011;39039;51.802;5.710;2022-09-04T06:52:31;18.52;;;10.45;;
12660;SDS011;39039;51.802;5.710;2022-09-04T06:55:05;16.90;;;9.93;;
12660;SDS011;39039;51.802;5.710;2022-09-04T06:58:00;13.93;;;9.80;;
12660;SDS011;39039;51.802;5.710;2022-09-04T07:00:39;15.07;;;10.32;;
12660;SDS011;39039;51.802;5.710;2022-09-04T07:03:14;15.82;;;9.52;;
12660;SDS011;39039;51.802;5.710;2022-09-04T07:06:00;16.10;;;10.38;;
12660;SDS011;39039;51.802;5.710;2022-09-04T07:08:37;13.57;;;9.93;;
12660;SDS011;39039;51.802;5.710;2022-09-04T07:11:18;14.43;;;9.70;;
12660;SDS011;39039;51.802;5.710;2022-09-04T07:13:55;15.20;;;10.30;;
12660;SDS011;39039;51.802;5.710;2022-09-04T07:16:40;15.25;;;10.07;;
12660;SDS011;39039;51.802;5.710;2022-09-04T07:19:19;14.43;;;9.77;;
12660;SDS011;39039;51.802;5.710;2022-09-04T07:22:18;14.25;;;9.75;;
12660;SDS011;39039;51.802;5.710;2022-09-04T07:25:00;15.65;;;9.93;;
12660;SDS011;39039;51.802;5.710;2022-09-04T07:27:41;14.32;;;8.88;;
12660;SDS011;39039;51.802;5.710;2022-09-04T07:30:21;11.90;;;8.23;;
12660;SDS011;39039;51.802;5.710;2022-09-04T07:32:51;12.27;;;9.40;;
12660;SDS011;39039;51.802;5.710;2022-09-04T07:35:22;14.15;;;8.45;;
12660;SDS011;39039;51.802;5.710;2022-09-04T07:37:56;10.98;;;8.50;;
12660;SDS011;39039;51.802;5.710;2022-09-04T07:40:29;16.77;;;9.13;;
12660;SDS011;39039;51.802;5.710;2022-09-04T07:43:02;12.63;;;8.75;;
12660;SDS011;39039;51.802;5.710;2022-09-04T07:45:37;12.88;;;8.55;;
12660;SDS011;39039;51.802;5.710;2022-09-04T07:48:14;14.70;;;9.05;;
12660;SDS011;39039;51.802;5.710;2022-09-04T07:50:53;12.75;;;8.95;;
12660;SDS011;39039;51.802;5.710;2022-09-04T07:53:29;13.43;;;8.65;;
12660;SDS011;39039;51.802;5.710;2022-09-04T07:56:11;13.40;;;8.73;;
12660;SDS011;39039;51.802;5.710;2022-09-04T07:58:50;12.95;;;9.55;;
12660;SDS011;39039;51.802;5.710;2022-09-04T08:01:41;14.85;;;9.40;;
12660;SDS011;39039;51.802;5.710;2022-09-04T08:04:26;15.88;;;9.00;;
12660;SDS011;39039;51.802;5.710;2022-09-04T08:07:11;14.38;;;9.88;;
12660;SDS011;39039;51.802;5.710;2022-09-04T08:09:52;13.23;;;9.05;;
12660;SDS011;39039;51.802;5.710;2022-09-04T08:15:29;11.80;;;8.43;;
12660;SDS011;39039;51.802;5.710;2022-09-04T08:18:17;12.77;;;8.77;;
12660;SDS011;39039;51.802;5.710;2022-09-04T08:20:54;11.70;;;8.63;;
12660;SDS011;39039;51.802;5.710;2022-09-04T08:23:42;10.80;;;8.43;;
12660;SDS011;39039;51.802;5.710;2022-09-04T08:26:26;13.73;;;8.57;;
12660;SDS011;39039;51.802;5.710;2022-09-04T08:29:05;11.35;;;8.57;;
12660;SDS011;39039;51.802;5.710;2022-09-04T08:31:46;12.05;;;9.07;;
12660;SDS011;39039;51.802;5.710;2022-09-04T08:34:41;13.55;;;8.23;;
12660;SDS011;39039;51.802;5.710;2022-09-04T08:37:21;13.70;;;8.20;;
12660;SDS011;39039;51.802;5.710;2022-09-04T08:39:53;11.80;;;8.18;;
12660;SDS011;39039;51.802;5.710;2022-09-04T08:42:55;12.63;;;7.82;;
12660;SDS011;39039;51.802;5.710;2022-09-04T08:45:58;11.52;;;8.02;;
12660;SDS011;39039;51.802;5.710;2022-09-04T08:49:12;11.82;;;7.65;;
12660;SDS011;39039;51.802;5.710;2022-09-04T08:52:13;8.85;;;6.32;;
12660;SDS011;39039;51.802;5.710;2022-09-04T09:00:45;9.82;;;6.50;;
12660;SDS011;39039;51.802;5.710;2022-09-04T09:12:29;10.52;;;6.90;;
12660;SDS011;39039;51.802;5.710;2022-09-04T09:18:15;9.00;;;6.25;;
12660;SDS011;39039;51.802;5.710;2022-09-04T09:21:00;10.60;;;5.40;;
12660;SDS011;39039;51.802;5.710;2022-09-04T09:23:37;8.23;;;6.00;;
12660;SDS011;39039;51.802;5.710;2022-09-04T09:26:23;7.80;;;5.47;;
12660;SDS011;39039;51.802;5.710;2022-09-04T09:32:22;8.30;;;5.60;;
12660;SDS011;39039;51.802;5.710;2022-09-04T09:35:33;7.35;;;4.88;;
12660;SDS011;39039;51.802;5.710;2022-09-04T09:38:37;8.57;;;6.25;;
12660;SDS011;39039;51.802;5.710;2022-09-04T09:41:39;10.38;;;5.55;;
12660;SDS011;39039;51.802;5.710;2022-09-04T09:44:32;7.88;;;5.50;;
12660;SDS011;39039;51.802;5.710;2022-09-04T09:47:30;7.10;;;5.55;;
12660;SDS011;39039;51.802;5.710;2022-09-04T09:50:19;9.38;;;5.95;;
12660;SDS011;39039;51.802;5.710;2022-09-04T09:53:28;7.32;;;4.60;;
12660;SDS011;39039;51.802;5.710;2022-09-04T09:56:43;6.10;;;4.40;;
12660;SDS011;39039;51.802;5.710;2022-09-04T09:59:30;7.90;;;5.40;;
12660;SDS011;39039;51.802;5.710;2022-09-04T10:02:41;11.50;;;5.13;;
12660;SDS011;39039;51.802;5.710;2022-09-04T10:05:43;9.05;;;4.95;;
12660;SDS011;39039;51.802;5.710;2022-09-04T10:08:39;7.65;;;4.57;;
12660;SDS011;39039;51.802;5.710;2022-09-04T10:11:20;7.63;;;4.78;;
12660;SDS011;39039;51.802;5.710;2022-09-04T10:14:28;6.45;;;4.18;;
12660;SDS011;39039;51.802;5.710;2022-09-04T10:17:18;9.23;;;3.97;;
12660;SDS011;39039;51.802;5.710;2022-09-04T10:22:58;7.03;;;3.85;;
12660;SDS011;39039;51.802;5.710;2022-09-04T10:25:54;11.27;;;4.38;;
12660;SDS011;39039;51.802;5.710;2022-09-04T10:28:47;5.65;;;3.70;;
12660;SDS011;39039;51.802;5.710;2022-09-04T10:34:35;4.47;;;2.95;;
12660;SDS011;39039;51.802;5.710;2022-09-04T10:37:23;5.22;;;2.78;;
12660;SDS011;39039;51.802;5.710;2022-09-04T10:40:04;4.28;;;2.35;;
12660;SDS011;39039;51.802;5.710;2022-09-04T10:43:15;4.05;;;2.58;;
12660;SDS011;39039;51.802;5.710;2022-09-04T10:46:05;5.72;;;2.88;;
12660;SDS011;39039;51.802;5.710;2022-09-04T10:48:55;4.47;;;2.08;;
12660;SDS011;39039;51.802;5.710;2022-09-04T10:51:39;3.75;;;2.25;;
12660;SDS011;39039;51.802;5.710;2022-09-04T10:57:37;4.20;;;2.75;;
12660;SDS011;39039;51.802;5.710;2022-09-04T11:00:30;5.03;;;2.33;;
12660;SDS011;39039;51.802;5.710;2022-09-04T11:03:26;2.97;;;2.00;;
12660;SDS011;39039;51.802;5.710;2022-09-04T11:09:16;3.92;;;2.38;;
12660;SDS011;39039;51.802;5.710;2022-09-04T11:12:06;2.28;;;1.70;;
12660;SDS011;39039;51.802;5.710;2022-09-04T11:18:02;2.92;;;1.77;;
12660;SDS011;39039;51.802;5.710;2022-09-04T11:20:54;2.47;;;1.60;;
12660;SDS011;39039;51.802;5.710;2022-09-04T11:30:01;2.42;;;1.02;;
12660;SDS011;39039;51.802;5.710;2022-09-04T11:32:50;1.90;;;1.10;;
12660;SDS011;39039;51.802;5.710;2022-09-04T11:38:38;5.25;;;1.45;;
12660;SDS011;39039;51.802;5.710;2022-09-04T11:41:44;1.70;;;1.23;;
12660;SDS011;39039;51.802;5.710;2022-09-04T11:44:33;2.00;;;0.98;;
12660;SDS011;39039;51.802;5.710;2022-09-04T11:50:42;2.85;;;1.40;;
12660;SDS011;39039;51.802;5.710;2022-09-04T11:53:30;3.47;;;1.50;;
12660;SDS011;39039;51.802;5.710;2022-09-04T11:56:21;5.25;;;1.10;;
12660;SDS011;39039;51.802;5.710;2022-09-04T11:59:06;1.92;;;0.98;;
12660;SDS011;39039;51.802;5.710;2022-09-04T12:04:57;1.05;;;0.80;;
12660;SDS011;39039;51.802;5.710;2022-09-04T12:07:39;1.20;;;1.08;;
12660;SDS011;39039;51.802;5.710;2022-09-04T12:13:27;1.92;;;1.25;;
12660;SDS011;39039;51.802;5.710;2022-09-04T12:16:37;1.73;;;1.05;;
12660;SDS011;39039;51.802;5.710;2022-09-04T12:22:21;1.65;;;1.20;;
12660;SDS011;39039;51.802;5.710;2022-09-04T12:25:33;1.92;;;1.10;;
12660;SDS011;39039;51.802;5.710;2022-09-04T12:28:44;2.15;;;1.15;;
12660;SDS011;39039;51.802;5.710;2022-09-04T12:31:42;1.58;;;1.23;;
12660;SDS011;39039;51.802;5.710;2022-09-04T12:40:33;3.88;;;1.02;;
12660;SDS011;39039;51.802;5.710;2022-09-04T12:43:08;1.17;;;0.88;;
12660;SDS011;39039;51.802;5.710;2022-09-04T12:45:49;1.55;;;0.80;;
12660;SDS011;39039;51.802;5.710;2022-09-04T12:48:26;1.50;;;0.90;;
12660;SDS011;39039;51.802;5.710;2022-09-04T12:51:03;2.30;;;0.85;;
12660;SDS011;39039;51.802;5.710;2022-09-04T12:53:42;0.70;;;0.65;;
12660;SDS011;39039;51.802;5.710;2022-09-04T12:56:16;1.67;;;0.88;;
12660;SDS011;39039;51.802;5.710;2022-09-04T12:58:55;1.40;;;0.90;;
12660;SDS011;39039;51.802;5.710;2022-09-04T13:01:37;1.33;;;1.00;;
12660;SDS011;39039;51.802;5.710;2022-09-04T13:04:15;0.88;;;0.80;;
12660;SDS011;39039;51.802;5.710;2022-09-04T13:06:49;1.23;;;0.90;;
12660;SDS011;39039;51.802;5.710;2022-09-04T13:09:29;1.35;;;1.13;;
12660;SDS011;39039;51.802;5.710;2022-09-04T13:12:05;1.63;;;0.90;;
12660;SDS011;39039;51.802;5.710;2022-09-04T13:17:32;1.50;;;1.17;;
12660;SDS011;39039;51.802;5.710;2022-09-04T13:20:10;0.90;;;0.60;;
12660;SDS011;39039;51.802;5.710;2022-09-04T13:22:52;1.52;;;0.98;;
12660;SDS011;39039;51.802;5.710;2022-09-04T13:25:30;1.20;;;1.02;;
12660;SDS011;39039;51.802;5.710;2022-09-04T13:28:08;1.00;;;0.90;;
12660;SDS011;39039;51.802;5.710;2022-09-04T13:30:45;2.45;;;1.20;;
12660;SDS011;39039;51.802;5.710;2022-09-04T13:33:26;2.85;;;1.25;;
12660;SDS011;39039;51.802;5.710;2022-09-04T13:36:15;2.17;;;1.33;;
12660;SDS011;39039;51.802;5.710;2022-09-04T13:41:55;1.10;;;1.00;;
12660;SDS011;39039;51.802;5.710;2022-09-04T13:44:47;2.50;;;1.27;;
12660;SDS011;39039;51.802;5.710;2022-09-04T13:47:23;3.05;;;1.30;;
12660;SDS011;39039;51.802;5.710;2022-09-04T13:49:52;1.42;;;1.30;;
12660;SDS011;39039;51.802;5.710;2022-09-04T13:52:25;2.47;;;1.15;;
12660;SDS011;39039;51.802;5.710;2022-09-04T13:54:58;2.85;;;1.30;;
12660;SDS011;39039;51.802;5.710;2022-09-04T13:57:29;1.65;;;1.23;;
12660;SDS011;39039;51.802;5.710;2022-09-04T14:00:01;1.15;;;0.93;;
12660;SDS011;39039;51.802;5.710;2022-09-04T14:02:32;3.88;;;1.60;;
12660;SDS011;39039;51.802;5.710;2022-09-04T14:05:03;2.53;;;1.70;;
12660;SDS011;39039;51.802;5.710;2022-09-04T14:07:36;2.67;;;0.95;;
12660;SDS011;39039;51.802;5.710;2022-09-04T14:10:07;2.45;;;1.20;;
12660;SDS011;39039;51.802;5.710;2022-09-04T14:12:41;1.75;;;1.23;;
12660;SDS011;39039;51.802;5.710;2022-09-04T14:15:27;3.15;;;1.40;;
12660;SDS011;39039;51.802;5.710;2022-09-04T14:18:13;1.70;;;1.35;;
12660;SDS011;39039;51.802;5.710;2022-09-04T14:20:54;2.08;;;1.35;;
12660;SDS011;39039;51.802;5.710;2022-09-04T14:23:28;1.80;;;1.13;;
12660;SDS011;39039;51.802;5.710;2022-09-04T14:26:05;2.45;;;1.33;;
12660;SDS011;39039;51.802;5.710;2022-09-04T14:28:40;2.50;;;1.35;;
12660;SDS011;39039;51.802;5.710;2022-09-04T14:31:12;2.35;;;1.35;;
12660;SDS011;39039;51.802;5.710;2022-09-04T14:33:48;1.50;;;1.17;;
12660;SDS011;39039;51.802;5.710;2022-09-04T14:36:23;1.48;;;0.98;;
12660;SDS011;39039;51.802;5.710;2022-09-04T14:39:05;5.25;;;1.17;;
12660;SDS011;39039;51.802;5.710;2022-09-04T14:41:44;1.70;;;1.10;;
12660;SDS011;39039;51.802;5.710;2022-09-04T14:44:25;1.83;;;0.98;;
12660;SDS011;39039;51.802;5.710;2022-09-04T14:47:04;3.53;;;1.20;;
12660;SDS011;39039;51.802;5.710;2022-09-04T14:49:41;2.15;;;1.00;;
12660;SDS011;39039;51.802;5.710;2022-09-04T14:52:10;2.45;;;1.02;;
12660;SDS011;39039;51.802;5.710;2022-09-04T14:54:45;1.20;;;1.00;;
12660;SDS011;39039;51.802;5.710;2022-09-04T14:57:17;2.65;;;1.48;;
12660;SDS011;39039;51.802;5.710;2022-09-04T14:59:49;2.92;;;1.00;;
12660;SDS011;39039;51.802;5.710;2022-09-04T15:02:30;1.90;;;1.00;;
12660;SDS011;39039;51.802;5.710;2022-09-04T15:05:02;1.48;;;1.02;;
12660;SDS011;39039;51.802;5.710;2022-09-04T15:10:20;1.55;;;1.30;;
12660;SDS011;39039;51.802;5.710;2022-09-04T15:12:55;1.55;;;1.10;;
12660;SDS011;39039;51.802;5.710;2022-09-04T15:15:38;2.88;;;0.95;;
12660;SDS011;39039;51.802;5.710;2022-09-04T15:18:08;0.88;;;0.88;;
12660;SDS011;39039;51.802;5.710;2022-09-04T15:20:43;1.02;;;0.93;;
12660;SDS011;39039;51.802;5.710;2022-09-04T15:23:15;2.67;;;0.98;;
12660;SDS011;39039;51.802;5.710;2022-09-04T15:25:51;2.15;;;0.98;;
12660;SDS011;39039;51.802;5.710;2022-09-04T15:28:27;1.50;;;0.90;;
12660;SDS011;39039;51.802;5.710;2022-09-04T15:31:04;3.03;;;1.20;;
12660;SDS011;39039;51.802;5.710;2022-09-04T15:33:36;1.55;;;1.30;;
12660;SDS011;39039;51.802;5.710;2022-09-04T15:36:06;2.15;;;1.20;;
12660;SDS011;39039;51.802;5.710;2022-09-04T15:38:35;1.45;;;1.30;;
12660;SDS011;39039;51.802;5.710;2022-09-04T15:41:06;2.03;;;1.25;;
12660;SDS011;39039;51.802;5.710;2022-09-04T15:43:42;3.03;;;1.00;;
12660;SDS011;39039;51.802;5.710;2022-09-04T15:46:15;1.98;;;0.90;;
12660;SDS011;39039;51.802;5.710;2022-09-04T15:48:49;1.88;;;1.00;;
12660;SDS011;39039;51.802;5.710;2022-09-04T15:51:25;1.58;;;1.10;;
12660;SDS011;39039;51.802;5.710;2022-09-04T15:54:18;2.28;;;1.08;;
12660;SDS011;39039;51.802;5.710;2022-09-04T15:56:56;4.38;;;1.10;;
12660;SDS011;39039;51.802;5.710;2022-09-04T15:59:35;2.20;;;1.27;;
12660;SDS011;39039;51.802;5.710;2022-09-04T16:02:10;1.73;;;1.08;;
12660;SDS011;39039;51.802;5.710;2022-09-04T16:04:48;2.35;;;1.50;;
12660;SDS011;39039;51.802;5.710;2022-09-04T16:07:31;1.38;;;1.27;;
12660;SDS011;39039;51.802;5.710;2022-09-04T16:10:08;1.45;;;1.10;;
12660;SDS011;39039;51.802;5.710;2022-09-04T16:12:48;1.60;;;1.20;;
12660;SDS011;39039;51.802;5.710;2022-09-04T16:15:17;3.17;;;2.13;;
12660;SDS011;39039;51.802;5.710;2022-09-04T16:17:49;2.22;;;1.65;;
12660;SDS011;39039;51.802;5.710;2022-09-04T16:20:19;1.67;;;1.35;;
12660;SDS011;39039;51.802;5.710;2022-09-04T16:22:49;6.57;;;1.48;;
12660;SDS011;39039;51.802;5.710;2022-09-04T16:25:22;2.38;;;2.13;;
12660;SDS011;39039;51.802;5.710;2022-09-04T16:27:55;2.08;;;1.88;;
12660;SDS011;39039;51.802;5.710;2022-09-04T16:30:30;2.22;;;1.67;;
12660;SDS011;39039;51.802;5.710;2022-09-04T16:33:01;1.48;;;1.38;;
12660;SDS011;39039;51.802;5.710;2022-09-04T16:35:31;2.80;;;1.70;;
12660;SDS011;39039;51.802;5.710;2022-09-04T16:38:06;2.53;;;2.10;;
12660;SDS011;39039;51.802;5.710;2022-09-04T16:40:39;2.05;;;1.95;;
12660;SDS011;39039;51.802;5.710;2022-09-04T16:43:17;1.48;;;1.38;;
12660;SDS011;39039;51.802;5.710;2022-09-04T16:45:49;2.55;;;1.85;;
12660;SDS011;39039;51.802;5.710;2022-09-04T16:48:21;4.68;;;1.45;;
12660;SDS011;39039;51.802;5.710;2022-09-04T16:50:56;1.92;;;1.55;;
12660;SDS011;39039;51.802;5.710;2022-09-04T16:53:31;1.75;;;1.33;;
12660;SDS011;39039;51.802;5.710;2022-09-04T16:56:01;2.13;;;1.65;;
12660;SDS011;39039;51.802;5.710;2022-09-04T16:58:35;1.88;;;1.42;;
12660;SDS011;39039;51.802;5.710;2022-09-04T17:01:12;2.75;;;1.00;;
12660;SDS011;39039;51.802;5.710;2022-09-04T17:03:46;1.38;;;1.05;;
12660;SDS011;39039;51.802;5.710;2022-09-04T17:06:20;1.77;;;0.98;;
12660;SDS011;39039;51.802;5.710;2022-09-04T17:08:54;3.70;;;1.27;;
12660;SDS011;39039;51.802;5.710;2022-09-04T17:11:29;2.33;;;1.05;;
12660;SDS011;39039;51.802;5.710;2022-09-04T17:14:04;2.00;;;1.40;;